METAR AND TAF INFORMATION
METAR FOR SVJC
ADDS - METARS form results

(0446 UTC 06 June 2020)
Data provider http://aviationweather.gov/metar/data/
 
Forecast for: SVJC (PARAGUANA/JOSEFA, VE)
Text: TAF SVJC 060400Z 0606/0706 18009KT 9999 SCT016 TX31/19Z TN25/08Z
Forecast period: 0600 UTC 06 June 2020 to 0600 UTC 07 June 2020
Forecast type: FROM: standard forecast or significant change
Winds: from the S (180 degrees) at 10 MPH (9 knots; 4.6 m/s)
Visibility: 6 or more miles 10+ km)
Ceiling: at least 12,000 feet AGL
Clouds: scattered clouds at 1600 feet AGL
Weather: no significant weather forecast for this period
Text: TEMPO 0606/0610 21008KT 9000 DZ BKN020 BKN070
Forecast period: 0600 to 1000 UTC 06 June 2020
Forecast type: TEMPORARY: The following changes expected for less than half the time period
Winds: from the SSW (210 degrees) at 9 MPH (8 knots; 4.1 m/s)
Visibility: 6 miles (9 km)
Ceiling: 2000 feet AGL
Clouds: broken clouds at 2000 feet AGL
broken clouds at 7000 feet AGL
Weather: DZ  (moderate drizzle)

 AIRPORT MAP

 RUNWAY INFORMATION
Runway 09 Runway length 9186 ft Runway width 148 ft
Runway elevation 75 ft Runway displaced threshold 0 ft Runway heading 85
Runway 27 Runway length 9186 ft Runway width 148 ft
Runway elevation 75 ft Runway displaced threshold 0 ft Runway heading 265

 AIRPORT FREQUENCIES
Type TWR Name TWR Frequency 118.45 MHZ

 AIRPORT NEAR NAVIGATION AIDS
Type VOR-DME Name Paraguana Frequency 113600 KHZ
Type NDB Name Paraguana Frequency 385 KHZ